Wetterdaten: Woche 17.11.08 - 23.11.08 (KW47)
Datum Zeit Temperatur Luftfeuchte Luftdruck Niederschlag Wind Richtung Sonnenschein Solar Taupunkt Windchill Windben
17.11.2008 00:00 5.8 C 92 % 1030.3 hPa 0.8 l/m 1.4 km/h (1 Bft) S-SO 0.00 h 0 W/m 4.7 C 5.8 C 3.6 km/h (1 Bft)
17.11.2008 01:00 5.8 C 94 % 1030.0 hPa 0.0 l/m 1.8 km/h (1 Bft) S 0.00 h 0 W/m 4.9 C 5.7 C 4.2 km/h (1 Bft)
17.11.2008 02:00 5.9 C 96 % 1029.9 hPa 0.4 l/m 0.6 km/h (0 Bft) S-SO 0.00 h 0 W/m 5.2 C 5.9 C 2.2 km/h (1 Bft)
17.11.2008 03:00 6.0 C 97 % 1030.1 hPa 0.2 l/m 0.2 km/h (0 Bft) NO 0.00 h 0 W/m 5.5 C 6.0 C 0.6 km/h (0 Bft)
17.11.2008 04:00 6.0 C 97 % 1030.0 hPa 0.0 l/m 0.2 km/h (0 Bft) NO 0.00 h 0 W/m 5.6 C 6.0 C 1.0 km/h (0 Bft)
17.11.2008 05:00 6.1 C 97 % 1030.2 hPa 0.0 l/m 0.1 km/h (0 Bft) NO 0.00 h 0 W/m 5.6 C 6.1 C 0.5 km/h (0 Bft)
17.11.2008 06:00 6.0 C 98 % 1030.5 hPa 0.2 l/m 0.2 km/h (0 Bft) NO 0.00 h 0 W/m 5.8 C 6.0 C 0.9 km/h (0 Bft)
17.11.2008 07:00 6.1 C 98 % 1030.9 hPa 0.4 l/m 1.1 km/h (0 Bft) NO 0.00 h 0 W/m 5.8 C 6.1 C 2.5 km/h (1 Bft)
17.11.2008 08:00 5.6 C 97 % 1031.5 hPa 0.0 l/m 2.3 km/h (1 Bft) N-NO 0.00 h 11 W/m 5.2 C 5.4 C 5.1 km/h (1 Bft)
17.11.2008 09:00 5.8 C 97 % 1031.4 hPa 0.0 l/m 0.6 km/h (0 Bft) N-NO 0.02 h 62 W/m 5.3 C 5.8 C 2.0 km/h (1 Bft)
17.11.2008 10:00 6.3 C 95 % 1031.2 hPa 0.0 l/m 1.4 km/h (1 Bft) N 0.00 h 47 W/m 5.5 C 6.2 C 3.3 km/h (1 Bft)
17.11.2008 11:00 6.6 C 91 % 1031.1 hPa 0.0 l/m 0.8 km/h (0 Bft) NO 0.00 h 56 W/m 5.3 C 6.6 C 2.3 km/h (1 Bft)
17.11.2008 12:00 7.3 C 83 % 1030.1 hPa 0.0 l/m 7.4 km/h (2 Bft) O-SO 0.30 h 190 W/m 4.5 C 6.1 C 12.1 km/h (2 Bft)
17.11.2008 13:00 7.2 C 77 % 1029.4 hPa 0.0 l/m 7.7 km/h (2 Bft) O-SO 0.32 h 173 W/m 3.5 C 6.0 C 12.1 km/h (2 Bft)
17.11.2008 14:00 7.6 C 76 % 1028.7 hPa 0.0 l/m 6.1 km/h (2 Bft) O-SO 0.83 h 200 W/m 3.6 C 6.7 C 9.6 km/h (2 Bft)
17.11.2008 15:00 7.0 C 76 % 1028.2 hPa 0.0 l/m 3.9 km/h (1 Bft) O-SO 0.25 h 74 W/m 3.1 C 6.6 C 6.8 km/h (2 Bft)
17.11.2008 16:00 6.3 C 78 % 1028.0 hPa 0.0 l/m 0.3 km/h (0 Bft) O-SO 0.00 h 14 W/m 2.7 C 6.3 C 0.5 km/h (0 Bft)
17.11.2008 17:00 5.7 C 81 % 1027.7 hPa 0.0 l/m 0.9 km/h (0 Bft) O-SO 0.00 h 0 W/m 2.7 C 5.7 C 2.0 km/h (1 Bft)
17.11.2008 18:00 5.2 C 84 % 1027.3 hPa 0.0 l/m 0.8 km/h (0 Bft) O-SO 0.00 h 0 W/m 2.7 C 5.2 C 2.3 km/h (1 Bft)
17.11.2008 19:00 5.4 C 82 % 1026.9 hPa 0.0 l/m 0.3 km/h (0 Bft) O-SO 0.00 h 0 W/m 2.6 C 5.4 C 0.9 km/h (0 Bft)
17.11.2008 20:00 5.1 C 81 % 1026.2 hPa 0.0 l/m 0.3 km/h (0 Bft) N-NO 0.00 h 0 W/m 2.2 C 5.1 C 1.1 km/h (0 Bft)
17.11.2008 21:00 4.7 C 79 % 1025.5 hPa 0.0 l/m 0.2 km/h (0 Bft) N-NO 0.00 h 0 W/m 1.4 C 4.7 C 0.9 km/h (0 Bft)
17.11.2008 22:00 4.1 C 82 % 1024.8 hPa 0.0 l/m 0.0 km/h (0 Bft) N 0.00 h 0 W/m 1.3 C 4.1 C 0.1 km/h (0 Bft)
17.11.2008 23:00 3.7 C 86 % 1023.8 hPa 0.0 l/m 1.1 km/h (0 Bft) NO 0.00 h 0 W/m 1.5 C 3.6 C 2.1 km/h (1 Bft)
18.11.2008 00:00 3.3 C 89 % 1023.4 hPa 0.0 l/m 0.7 km/h (0 Bft) O-SO 0.00 h 0 W/m 1.7 C 3.3 C 2.0 km/h (1 Bft)
18.11.2008 01:00 3.4 C 90 % 1022.1 hPa 0.0 l/m 0.8 km/h (0 Bft) O-SO 0.00 h 0 W/m 1.9 C 3.3 C 1.7 km/h (1 Bft)
18.11.2008 02:00 3.2 C 90 % 1021.0 hPa 0.0 l/m 0.1 km/h (0 Bft) O-SO 0.00 h 0 W/m 1.7 C 3.2 C 0.5 km/h (0 Bft)
18.11.2008 03:00 3.0 C 90 % 1020.3 hPa 0.0 l/m 0.4 km/h (0 Bft) O-SO 0.00 h 0 W/m 1.6 C 3.0 C 0.9 km/h (0 Bft)
18.11.2008 04:00 2.9 C 92 % 1019.6 hPa 0.0 l/m 0.3 km/h (0 Bft) O-SO 0.00 h 0 W/m 1.7 C 2.9 C 1.1 km/h (1 Bft)
18.11.2008 05:00 2.9 C 92 % 1019.1 hPa 0.0 l/m 1.8 km/h (1 Bft) O-SO 0.00 h 0 W/m 1.7 C 2.7 C 3.2 km/h (1 Bft)
18.11.2008 06:00 3.2 C 92 % 1018.5 hPa 0.0 l/m 1.1 km/h (1 Bft) O 0.00 h 0 W/m 2.0 C 3.2 C 2.0 km/h (1 Bft)
18.11.2008 07:00 3.4 C 92 % 1018.2 hPa 0.0 l/m 0.2 km/h (0 Bft) O 0.00 h 7 W/m 2.2 C 3.4 C 0.5 km/h (0 Bft)
18.11.2008 08:00 3.5 C 92 % 1018.0 hPa 0.0 l/m 0.0 km/h (0 Bft) N 0.00 h 16 W/m 2.4 C 3.5 C 0.0 km/h (0 Bft)
18.11.2008 09:00 4.2 C 93 % 1017.9 hPa 0.0 l/m 0.9 km/h (0 Bft) O 0.00 h 55 W/m 3.1 C 4.2 C 2.3 km/h (1 Bft)
18.11.2008 10:00 6.0 C 86 % 1017.6 hPa 0.0 l/m 1.2 km/h (1 Bft) S-SO 0.00 h 144 W/m 3.9 C 6.0 C 3.3 km/h (1 Bft)
18.11.2008 11:00 6.9 C 82 % 1017.3 hPa 0.0 l/m 2.9 km/h (1 Bft) S 0.00 h 154 W/m 4.0 C 6.8 C 6.3 km/h (2 Bft)
18.11.2008 12:00 7.3 C 82 % 1016.6 hPa 0.0 l/m 5.8 km/h (2 Bft) W 0.00 h 155 W/m 4.3 C 6.5 C 9.5 km/h (2 Bft)
18.11.2008 13:00 6.9 C 82 % 1016.4 hPa 0.0 l/m 7.6 km/h (2 Bft) W 0.00 h 117 W/m 4.0 C 5.5 C 11.9 km/h (2 Bft)
18.11.2008 14:00 6.3 C 85 % 1016.3 hPa 0.0 l/m 4.8 km/h (1 Bft) W-NW 0.00 h 73 W/m 4.0 C 5.6 C 7.7 km/h (2 Bft)
18.11.2008 15:00 6.1 C 84 % 1016.3 hPa 0.0 l/m 5.3 km/h (1 Bft) W 0.00 h 28 W/m 3.7 C 5.3 C 8.5 km/h (2 Bft)
18.11.2008 16:00 5.9 C 85 % 1016.3 hPa 0.0 l/m 2.8 km/h (1 Bft) W-NW 0.00 h 11 W/m 3.6 C 5.8 C 4.9 km/h (1 Bft)
18.11.2008 17:00 5.5 C 87 % 1016.8 hPa 0.0 l/m 1.5 km/h (1 Bft) NW 0.00 h 0 W/m 3.5 C 5.5 C 3.5 km/h (1 Bft)
18.11.2008 18:00 5.3 C 87 % 1017.2 hPa 0.0 l/m 0.5 km/h (0 Bft) W-NW 0.00 h 0 W/m 3.3 C 5.3 C 1.4 km/h (1 Bft)
18.11.2008 19:00 5.0 C 88 % 1017.7 hPa 0.0 l/m 2.2 km/h (1 Bft) O-SO 0.00 h 0 W/m 3.1 C 4.7 C 3.2 km/h (1 Bft)
18.11.2008 20:00 4.5 C 91 % 1018.0 hPa 0.0 l/m 1.6 km/h (1 Bft) SO 0.00 h 0 W/m 3.1 C 4.5 C 3.5 km/h (1 Bft)
18.11.2008 21:00 4.8 C 93 % 1018.0 hPa 0.0 l/m 1.3 km/h (1 Bft) S-SO 0.00 h 0 W/m 3.8 C 4.8 C 3.2 km/h (1 Bft)
18.11.2008 22:00 4.7 C 93 % 1018.0 hPa 0.0 l/m 0.6 km/h (0 Bft) SO 0.00 h 0 W/m 3.7 C 4.7 C 1.6 km/h (1 Bft)
18.11.2008 23:00 4.4 C 93 % 1018.2 hPa 0.0 l/m 0.1 km/h (0 Bft) SO 0.00 h 0 W/m 3.4 C 4.4 C 1.0 km/h (0 Bft)
19.11.2008 00:00 4.2 C 93 % 1018.8 hPa 0.0 l/m 0.0 km/h (0 Bft) S-SO 0.00 h 0 W/m 3.2 C 4.2 C 0.4 km/h (0 Bft)
19.11.2008 01:00 4.2 C 93 % 1018.9 hPa 0.0 l/m 0.5 km/h (0 Bft) W 0.00 h 0 W/m 3.2 C 4.2 C 1.4 km/h (1 Bft)
19.11.2008 02:00 3.4 C 93 % 1019.3 hPa 0.0 l/m 0.3 km/h (0 Bft) S 0.00 h 0 W/m 2.4 C 3.4 C 0.8 km/h (0 Bft)
19.11.2008 03:00 3.4 C 95 % 1019.6 hPa 0.0 l/m 0.1 km/h (0 Bft) S-SW 0.00 h 0 W/m 2.6 C 3.4 C 0.5 km/h (0 Bft)
19.11.2008 04:00 3.7 C 95 % 1020.0 hPa 0.0 l/m 0.0 km/h (0 Bft) N 0.00 h 0 W/m 3.0 C 3.7 C 0.1 km/h (0 Bft)
19.11.2008 05:00 3.8 C 95 % 1020.4 hPa 0.0 l/m 1.0 km/h (0 Bft) S-SW 0.00 h 0 W/m 3.1 C 3.8 C 2.1 km/h (1 Bft)
19.11.2008 06:00 4.0 C 95 % 1020.8 hPa 0.0 l/m 0.6 km/h (0 Bft) N 0.00 h 0 W/m 3.3 C 4.0 C 1.6 km/h (1 Bft)
19.11.2008 07:00 4.1 C 95 % 1021.3 hPa 0.0 l/m 1.4 km/h (1 Bft) O-SO 0.00 h 8 W/m 3.4 C 4.0 C 2.3 km/h (1 Bft)
19.11.2008 08:00 4.2 C 95 % 1022.1 hPa 0.0 l/m 0.4 km/h (0 Bft) O-SO 0.00 h 30 W/m 3.4 C 4.2 C 1.1 km/h (1 Bft)
19.11.2008 09:00 5.5 C 95 % 1022.1 hPa 0.0 l/m 1.7 km/h (1 Bft) O-SO 0.00 h 84 W/m 4.9 C 5.5 C 3.7 km/h (1 Bft)
19.11.2008 10:00 7.3 C 90 % 1022.5 hPa 0.0 l/m 1.7 km/h (1 Bft) S-SW 0.43 h 165 W/m 5.8 C 7.3 C 4.3 km/h (1 Bft)
19.11.2008 11:00 8.6 C 85 % 1022.2 hPa 0.0 l/m 2.2 km/h (1 Bft) S 0.45 h 204 W/m 6.2 C 8.6 C 5.0 km/h (1 Bft)
19.11.2008 12:00 9.4 C 78 % 1021.6 hPa 0.0 l/m 6.0 km/h (2 Bft) W-NW 0.27 h 188 W/m 5.7 C 8.7 C 9.9 km/h (2 Bft)
19.11.2008 13:00 9.7 C 76 % 1021.3 hPa 0.0 l/m 3.4 km/h (1 Bft) W-NW 0.00 h 110 W/m 5.6 C 9.6 C 5.7 km/h (1 Bft)
19.11.2008 14:00 9.1 C 78 % 1021.4 hPa 0.0 l/m 1.7 km/h (1 Bft) W-NW 0.00 h 37 W/m 5.5 C 9.1 C 3.4 km/h (1 Bft)
19.11.2008 15:00 9.1 C 79 % 1021.5 hPa 0.0 l/m 0.2 km/h (0 Bft) NO 0.00 h 26 W/m 5.6 C 9.1 C 0.5 km/h (0 Bft)
19.11.2008 16:00 8.8 C 80 % 1021.3 hPa 0.0 l/m 0.5 km/h (0 Bft) N 0.02 h 16 W/m 5.5 C 8.8 C 2.1 km/h (1 Bft)
19.11.2008 17:00 7.8 C 84 % 1021.7 hPa 0.0 l/m 0.5 km/h (0 Bft) S-SO 0.00 h 0 W/m 5.2 C 7.8 C 1.5 km/h (1 Bft)
19.11.2008 18:00 7.8 C 86 % 1022.0 hPa 0.0 l/m 3.6 km/h (1 Bft) W 0.00 h 0 W/m 5.6 C 7.5 C 6.2 km/h (2 Bft)
19.11.2008 19:00 7.3 C 87 % 1021.9 hPa 0.0 l/m 3.9 km/h (1 Bft) W 0.00 h 0 W/m 5.4 C 7.1 C 6.2 km/h (2 Bft)
19.11.2008 20:00 7.2 C 88 % 1021.9 hPa 0.0 l/m 7.7 km/h (2 Bft) W 0.00 h 0 W/m 5.3 C 5.8 C 11.5 km/h (2 Bft)
19.11.2008 21:00 7.4 C 87 % 1021.8 hPa 0.0 l/m 10.4 km/h (2 Bft) W 0.00 h 0 W/m 5.3 C 5.5 C 16.3 km/h (3 Bft)
19.11.2008 22:00 7.2 C 87 % 1021.6 hPa 0.0 l/m 11.3 km/h (2 Bft) W 0.00 h 0 W/m 5.1 C 5.1 C 17.8 km/h (3 Bft)
19.11.2008 23:00 6.9 C 87 % 1021.2 hPa 0.0 l/m 9.5 km/h (2 Bft) W 0.00 h 0 W/m 4.8 C 5.1 C 14.5 km/h (3 Bft)
20.11.2008 00:00 6.6 C 86 % 1021.1 hPa 0.0 l/m 7.3 km/h (2 Bft) W 0.00 h 0 W/m 4.4 C 5.3 C 11.4 km/h (2 Bft)
20.11.2008 01:00 6.4 C 84 % 1021.0 hPa 0.0 l/m 3.0 km/h (1 Bft) W-SW 0.00 h 0 W/m 3.8 C 6.2 C 5.7 km/h (1 Bft)
20.11.2008 02:00 6.7 C 81 % 1020.8 hPa 0.0 l/m 4.0 km/h (1 Bft) W-SW 0.00 h 0 W/m 3.6 C 6.1 C 7.6 km/h (2 Bft)
20.11.2008 03:00 7.2 C 78 % 1020.7 hPa 0.0 l/m 7.5 km/h (2 Bft) W 0.00 h 0 W/m 3.6 C 5.9 C 11.5 km/h (2 Bft)
20.11.2008 04:00 7.2 C 78 % 1020.5 hPa 0.0 l/m 5.6 km/h (1 Bft) W 0.00 h 0 W/m 3.6 C 6.4 C 9.1 km/h (2 Bft)
20.11.2008 05:00 6.9 C 79 % 1020.7 hPa 0.0 l/m 2.3 km/h (1 Bft) W 0.00 h 0 W/m 3.6 C 6.8 C 5.0 km/h (1 Bft)
20.11.2008 06:00 6.7 C 80 % 1020.7 hPa 0.0 l/m 2.2 km/h (1 Bft) W 0.00 h 0 W/m 3.5 C 6.7 C 4.3 km/h (1 Bft)
20.11.2008 07:00 7.0 C 77 % 1020.9 hPa 0.0 l/m 3.1 km/h (1 Bft) W-SW 0.00 h 8 W/m 3.2 C 6.8 C 5.4 km/h (1 Bft)
20.11.2008 08:00 7.0 C 78 % 1021.1 hPa 0.0 l/m 4.1 km/h (1 Bft) S-SW 0.00 h 27 W/m 3.4 C 6.7 C 7.0 km/h (2 Bft)
20.11.2008 09:00 7.7 C 76 % 1020.9 hPa 0.0 l/m 7.6 km/h (2 Bft) SW 0.03 h 75 W/m 3.7 C 6.4 C 13.8 km/h (3 Bft)
20.11.2008 10:00 8.0 C 75 % 1020.8 hPa 0.0 l/m 8.0 km/h (2 Bft) SW 0.00 h 68 W/m 3.8 C 6.6 C 13.2 km/h (3 Bft)
20.11.2008 11:00 8.9 C 72 % 1020.4 hPa 0.0 l/m 6.7 km/h (2 Bft) W-SW 0.00 h 102 W/m 4.1 C 8.0 C 11.4 km/h (2 Bft)
20.11.2008 12:00 9.3 C 70 % 1019.2 hPa 0.0 l/m 8.7 km/h (2 Bft) W-SW 0.00 h 93 W/m 4.2 C 8.2 C 13.7 km/h (3 Bft)
20.11.2008 13:00 9.5 C 71 % 1018.6 hPa 0.0 l/m 6.4 km/h (2 Bft) W-SW 0.08 h 93 W/m 4.4 C 8.8 C 10.9 km/h (2 Bft)
20.11.2008 14:00 10.0 C 69 % 1018.3 hPa 0.0 l/m 13.6 km/h (3 Bft) W 0.50 h 163 W/m 4.7 C 9.0 C 21.8 km/h (4 Bft)
20.11.2008 15:00 9.4 C 69 % 1018.3 hPa 0.0 l/m 15.3 km/h (3 Bft) W 0.03 h 52 W/m 4.0 C 7.2 C 23.5 km/h (4 Bft)
20.11.2008 16:00 9.3 C 68 % 1018.2 hPa 0.0 l/m 12.2 km/h (2 Bft) W 0.55 h 30 W/m 3.7 C 7.5 C 19.8 km/h (4 Bft)
20.11.2008 17:00 8.8 C 68 % 1018.3 hPa 0.0 l/m 7.3 km/h (2 Bft) W-SW 0.00 h 0 W/m 3.2 C 7.8 C 13.1 km/h (3 Bft)
20.11.2008 18:00 8.7 C 67 % 1017.8 hPa 0.0 l/m 6.1 km/h (2 Bft) W-SW 0.00 h 0 W/m 2.9 C 8.0 C 11.2 km/h (2 Bft)
20.11.2008 19:00 8.7 C 67 % 1017.4 hPa 0.0 l/m 6.2 km/h (2 Bft) W-SW 0.00 h 0 W/m 2.9 C 7.9 C 10.4 km/h (2 Bft)
20.11.2008 20:00 8.7 C 69 % 1017.8 hPa 0.0 l/m 10.8 km/h (2 Bft) W-SW 0.00 h 0 W/m 3.4 C 7.0 C 18.1 km/h (3 Bft)
20.11.2008 21:00 8.4 C 71 % 1017.6 hPa 0.0 l/m 9.4 km/h (2 Bft) W 0.00 h 0 W/m 3.4 C 7.0 C 15.8 km/h (3 Bft)
20.11.2008 22:00 8.1 C 74 % 1017.2 hPa 0.0 l/m 3.8 km/h (1 Bft) S-SW 0.00 h 0 W/m 3.7 C 7.8 C 7.0 km/h (2 Bft)
20.11.2008 23:00 7.6 C 80 % 1016.7 hPa 0.2 l/m 3.9 km/h (1 Bft) W-SW 0.00 h 0 W/m 4.2 C 7.3 C 6.5 km/h (2 Bft)
21.11.2008 00:00 6.9 C 87 % 1016.8 hPa 0.8 l/m 4.1 km/h (1 Bft) W-SW 0.00 h 0 W/m 5.0 C 6.6 C 6.6 km/h (2 Bft)
21.11.2008 01:00 6.5 C 92 % 1015.9 hPa 0.0 l/m 3.3 km/h (1 Bft) W-SW 0.00 h 0 W/m 5.3 C 6.4 C 6.2 km/h (2 Bft)
21.11.2008 02:00 6.8 C 93 % 1014.7 hPa 0.0 l/m 8.2 km/h (2 Bft) SW 0.00 h 0 W/m 5.7 C 5.3 C 12.7 km/h (3 Bft)
21.11.2008 03:00 6.8 C 92 % 1013.7 hPa 0.0 l/m 9.3 km/h (2 Bft) SW 0.00 h 0 W/m 5.6 C 5.0 C 14.8 km/h (3 Bft)
21.11.2008 04:00 7.1 C 92 % 1012.8 hPa 0.4 l/m 7.8 km/h (2 Bft) SW 0.00 h 0 W/m 5.8 C 5.7 C 12.7 km/h (3 Bft)
21.11.2008 05:00 7.3 C 94 % 1011.8 hPa 1.2 l/m 9.2 km/h (2 Bft) W-SW 0.00 h 0 W/m 6.3 C 5.6 C 15.3 km/h (3 Bft)
21.11.2008 06:00 7.3 C 94 % 1010.4 hPa 1.6 l/m 12.8 km/h (3 Bft) W-SW 0.00 h 0 W/m 6.4 C 5.0 C 20.0 km/h (4 Bft)
21.11.2008 07:00 7.3 C 94 % 1009.3 hPa 2.2 l/m 14.5 km/h (3 Bft) W 0.00 h 0 W/m 6.4 C 4.8 C 23.3 km/h (4 Bft)
21.11.2008 08:00 7.3 C 93 % 1009.1 hPa 2.2 l/m 18.0 km/h (3 Bft) W 0.00 h 9 W/m 6.2 C 4.3 C 27.8 km/h (4 Bft)
21.11.2008 09:00 7.4 C 93 % 1008.4 hPa 1.8 l/m 18.8 km/h (3 Bft) W 0.00 h 27 W/m 6.3 C 4.3 C 29.0 km/h (5 Bft)
21.11.2008 10:00 7.7 C 92 % 1007.2 hPa 0.8 l/m 21.6 km/h (4 Bft) W 0.00 h 58 W/m 6.6 C 4.4 C 32.2 km/h (5 Bft)
21.11.2008 11:00 7.8 C 92 % 1006.1 hPa 2.2 l/m 18.6 km/h (3 Bft) W 0.00 h 57 W/m 6.6 C 4.8 C 29.2 km/h (5 Bft)
21.11.2008 12:00 8.0 C 93 % 1004.7 hPa 1.8 l/m 16.4 km/h (3 Bft) W 0.00 h 43 W/m 6.9 C 5.3 C 25.5 km/h (4 Bft)
21.11.2008 13:00 8.7 C 90 % 1003.2 hPa 1.8 l/m 20.2 km/h (4 Bft) W 0.00 h 33 W/m 7.2 C 5.8 C 30.3 km/h (5 Bft)
21.11.2008 14:00 8.2 C 88 % 1003.6 hPa 1.2 l/m 22.9 km/h (4 Bft) W 0.00 h 15 W/m 6.4 C 4.8 C 34.0 km/h (5 Bft)
21.11.2008 15:00 6.7 C 83 % 1004.4 hPa 0.0 l/m 21.3 km/h (4 Bft) W 0.00 h 19 W/m 4.0 C 3.1 C 31.3 km/h (5 Bft)
21.11.2008 16:00 6.6 C 82 % 1005.4 hPa 0.0 l/m 18.7 km/h (3 Bft) W 0.00 h 14 W/m 3.8 C 3.3 C 28.5 km/h (4 Bft)
21.11.2008 17:00 5.6 C 71 % 1006.8 hPa 0.0 l/m 13.2 km/h (3 Bft) W-NW 0.00 h 0 W/m 0.8 C 2.8 C 20.8 km/h (4 Bft)
21.11.2008 18:00 5.2 C 59 % 1008.3 hPa 0.0 l/m 9.8 km/h (2 Bft) W-NW 0.00 h 0 W/m -2.0 C 3.2 C 15.7 km/h (3 Bft)
21.11.2008 19:00 4.8 C 63 % 1009.0 hPa 0.0 l/m 7.4 km/h (2 Bft) W 0.00 h 0 W/m -1.7 C 3.2 C 12.0 km/h (2 Bft)
21.11.2008 20:00 4.4 C 63 % 1009.0 hPa 0.0 l/m 9.7 km/h (2 Bft) W-NW 0.00 h 0 W/m -2.1 C 2.2 C 15.4 km/h (3 Bft)
21.11.2008 21:00 3.8 C 69 % 1008.4 hPa 0.0 l/m 7.1 km/h (2 Bft) W-SW 0.00 h 0 W/m -1.3 C 2.1 C 11.2 km/h (2 Bft)
21.11.2008 22:00 3.5 C 76 % 1008.1 hPa 0.0 l/m 15.5 km/h (3 Bft) W 0.00 h 0 W/m -0.4 C -0.2 C 23.5 km/h (4 Bft)
21.11.2008 23:00 2.4 C 86 % 1008.0 hPa 0.2 l/m 14.2 km/h (3 Bft) W 0.00 h 0 W/m 0.3 C -1.3 C 21.9 km/h (4 Bft)
22.11.2008 00:00 2.0 C 90 % 1007.6 hPa 0.0 l/m 13.2 km/h (3 Bft) W 0.00 h 0 W/m 0.5 C -1.6 C 20.6 km/h (4 Bft)
22.11.2008 01:00 1.7 C 87 % 1007.6 hPa 0.0 l/m 15.4 km/h (3 Bft) W 0.00 h 0 W/m -0.2 C -2.3 C 23.6 km/h (4 Bft)
22.11.2008 02:00 1.6 C 88 % 1007.7 hPa 0.2 l/m 14.9 km/h (3 Bft) W 0.00 h 0 W/m -0.2 C -2.3 C 22.6 km/h (4 Bft)
22.11.2008 03:00 1.8 C 85 % 1007.4 hPa 0.0 l/m 16.5 km/h (3 Bft) W 0.00 h 0 W/m -0.4 C -2.3 C 25.6 km/h (4 Bft)
22.11.2008 04:00 1.5 C 89 % 1006.8 hPa 0.2 l/m 11.7 km/h (2 Bft) W 0.00 h 0 W/m -0.2 C -1.8 C 18.1 km/h (3 Bft)
22.11.2008 05:00 1.2 C 91 % 1006.2 hPa 0.2 l/m 15.5 km/h (3 Bft) W 0.00 h 0 W/m -0.0 C -3.0 C 23.8 km/h (4 Bft)
22.11.2008 06:00 1.0 C 91 % 1006.8 hPa 0.0 l/m 14.6 km/h (3 Bft) W 0.00 h 0 W/m -0.3 C -3.1 C 22.7 km/h (4 Bft)
22.11.2008 07:00 1.1 C 88 % 1007.8 hPa 0.0 l/m 18.1 km/h (3 Bft) W 0.10 h 15 W/m -0.6 C -3.5 C 27.0 km/h (4 Bft)
22.11.2008 08:00 1.3 C 83 % 1008.7 hPa 0.0 l/m 17.4 km/h (3 Bft) W 0.28 h 43 W/m -1.2 C -3.2 C 25.8 km/h (4 Bft)
22.11.2008 09:00 1.3 C 83 % 1009.2 hPa 0.0 l/m 14.8 km/h (3 Bft) W 0.00 h 74 W/m -1.3 C -2.7 C 22.7 km/h (4 Bft)
22.11.2008 10:00 1.1 C 89 % 1009.3 hPa 0.0 l/m 14.2 km/h (3 Bft) W 0.20 h 134 W/m -0.5 C -2.9 C 21.9 km/h (4 Bft)
22.11.2008 11:00 1.5 C 86 % 1009.0 hPa 0.0 l/m 15.0 km/h (3 Bft) W 0.10 h 142 W/m -0.6 C -2.6 C 22.9 km/h (4 Bft)
22.11.2008 12:00 0.8 C 90 % 1008.8 hPa 0.0 l/m 19.3 km/h (3 Bft) W 0.00 h 84 W/m -0.7 C -4.1 C 28.6 km/h (4 Bft)
22.11.2008 13:00 0.6 C 92 % 1008.9 hPa 0.0 l/m 18.1 km/h (3 Bft) W 0.00 h 84 W/m -0.6 C -4.2 C 26.9 km/h (4 Bft)
22.11.2008 14:00 0.4 C 93 % 1009.0 hPa 0.2 l/m 18.9 km/h (3 Bft) W 0.00 h 58 W/m -0.6 C -4.6 C 29.3 km/h (5 Bft)
22.11.2008 15:00 0.4 C 93 % 1009.2 hPa 0.2 l/m 14.5 km/h (3 Bft) W 0.00 h 37 W/m -0.6 C -3.8 C 22.4 km/h (4 Bft)
22.11.2008 16:00 0.4 C 91 % 1009.7 hPa 0.4 l/m 14.8 km/h (3 Bft) W 0.00 h 7 W/m -0.9 C -3.8 C 22.9 km/h (4 Bft)
22.11.2008 17:00 0.3 C 89 % 1010.1 hPa 0.0 l/m 15.2 km/h (3 Bft) W 0.00 h 0 W/m -1.3 C -4.0 C 23.2 km/h (4 Bft)
22.11.2008 18:00 0.4 C 89 % 1010.6 hPa 0.0 l/m 10.3 km/h (2 Bft) W 0.00 h 0 W/m -1.2 C -2.8 C 16.1 km/h (3 Bft)
22.11.2008 19:00 0.3 C 90 % 1010.7 hPa 0.0 l/m 10.8 km/h (2 Bft) W 0.00 h 0 W/m -1.2 C -3.1 C 16.8 km/h (3 Bft)
22.11.2008 20:00 0.2 C 90 % 1010.4 hPa 0.2 l/m 9.9 km/h (2 Bft) W 0.00 h 0 W/m -1.2 C -3.0 C 15.1 km/h (3 Bft)
22.11.2008 21:00 0.0 C 90 % 1010.1 hPa 0.0 l/m 9.5 km/h (2 Bft) W 0.00 h 0 W/m -1.4 C -3.0 C 15.1 km/h (3 Bft)
22.11.2008 22:00 -0.2 C 91 % 1009.9 hPa 0.0 l/m 10.1 km/h (2 Bft) W 0.00 h 0 W/m -1.5 C -3.4 C 15.4 km/h (3 Bft)
22.11.2008 23:00 -0.1 C 92 % 1010.1 hPa 0.0 l/m 10.3 km/h (2 Bft) W 0.00 h 0 W/m -1.3 C -3.4 C 16.4 km/h (3 Bft)
23.11.2008 00:00 -0.1 C 91 % 1010.7 hPa 0.0 l/m 12.3 km/h (3 Bft) W 0.00 h 0 W/m -1.3 C -4.0 C 19.4 km/h (3 Bft)
23.11.2008 01:00 -0.2 C 90 % 1011.2 hPa 0.0 l/m 6.4 km/h (2 Bft) W 0.00 h 0 W/m -1.7 C -2.2 C 10.9 km/h (2 Bft)
23.11.2008 02:00 -0.8 C 90 % 1011.8 hPa 0.0 l/m 3.6 km/h (1 Bft) W 0.00 h 0 W/m -2.3 C -1.8 C 6.4 km/h (2 Bft)
23.11.2008 03:00 -1.4 C 90 % 1012.3 hPa 0.0 l/m 3.9 km/h (1 Bft) W 0.00 h 0 W/m -2.9 C -2.4 C 6.8 km/h (2 Bft)
23.11.2008 04:00 -1.0 C 90 % 1012.7 hPa 0.0 l/m 7.5 km/h (2 Bft) W 0.00 h 0 W/m -2.4 C -3.5 C 12.1 km/h (2 Bft)
23.11.2008 05:00 -0.8 C 90 % 1012.7 hPa 0.0 l/m 8.7 km/h (2 Bft) W 0.00 h 0 W/m -2.3 C -3.8 C 14.1 km/h (3 Bft)
23.11.2008 06:00 -1.1 C 88 % 1013.3 hPa 0.0 l/m 5.2 km/h (1 Bft) W 0.00 h 0 W/m -2.7 C -2.6 C 8.0 km/h (2 Bft)
23.11.2008 07:00 -1.3 C 88 % 1013.6 hPa 0.0 l/m 5.5 km/h (1 Bft) W 0.07 h 9 W/m -3.0 C -3.0 C 9.0 km/h (2 Bft)
23.11.2008 08:00 -1.2 C 87 % 1014.0 hPa 0.0 l/m 3.7 km/h (1 Bft) SW 0.28 h 32 W/m -3.1 C -1.8 C 6.0 km/h (2 Bft)
23.11.2008 09:00 -0.6 C 79 % 1014.1 hPa 0.0 l/m 5.3 km/h (1 Bft) W-SW 0.77 h 187 W/m -3.9 C -2.1 C 8.1 km/h (2 Bft)
23.11.2008 10:00 0.3 C 68 % 1013.8 hPa 0.0 l/m 6.8 km/h (2 Bft) W 0.50 h 215 W/m -5.0 C -1.8 C 10.2 km/h (2 Bft)
23.11.2008 11:00 1.0 C 65 % 1012.8 hPa 0.0 l/m 6.4 km/h (2 Bft) W 0.82 h 321 W/m -4.9 C -0.9 C 10.2 km/h (2 Bft)
23.11.2008 12:00 1.8 C 62 % 1011.5 hPa 0.0 l/m 8.1 km/h (2 Bft) W 0.72 h 327 W/m -4.8 C -0.6 C 12.7 km/h (3 Bft)
23.11.2008 13:00 1.4 C 69 % 1010.6 hPa 0.0 l/m 5.3 km/h (1 Bft) W 0.60 h 193 W/m -3.7 C 0.0 C 9.0 km/h (2 Bft)
23.11.2008 14:00 1.5 C 67 % 1008.9 hPa 0.0 l/m 4.1 km/h (1 Bft) W-SW 0.23 h 118 W/m -3.9 C 0.8 C 6.5 km/h (2 Bft)
23.11.2008 15:00 0.8 C 73 % 1007.4 hPa 0.0 l/m 5.8 km/h (2 Bft) W-NW 0.00 h 66 W/m -3.5 C -0.8 C 8.8 km/h (2 Bft)
23.11.2008 16:00 0.3 C 76 % 1005.2 hPa 0.0 l/m 1.3 km/h (1 Bft) W-NW 0.00 h 16 W/m -3.3 C 0.3 C 2.9 km/h (1 Bft)
23.11.2008 17:00 0.7 C 71 % 1002.8 hPa 0.0 l/m 3.4 km/h (1 Bft) SW 0.00 h 0 W/m -3.9 C 0.1 C 6.6 km/h (2 Bft)
23.11.2008 18:00 1.0 C 72 % 1000.7 hPa 0.0 l/m 5.7 km/h (1 Bft) S-SW 0.00 h 0 W/m -3.5 C -0.5 C 11.0 km/h (2 Bft)
23.11.2008 19:00 0.1 C 86 % 998.6 hPa 0.4 l/m 6.4 km/h (2 Bft) S-SW 0.00 h 0 W/m -1.9 C -1.7 C 11.5 km/h (2 Bft)
23.11.2008 20:00 -0.1 C 92 % 996.3 hPa 0.0 l/m 6.9 km/h (2 Bft) S 0.00 h 0 W/m -1.2 C -2.2 C 12.6 km/h (3 Bft)
23.11.2008 21:00 -0.1 C 95 % 994.6 hPa 0.6 l/m 6.6 km/h (2 Bft) S-SO 0.00 h 0 W/m -0.8 C -2.3 C 12.1 km/h (2 Bft)
23.11.2008 22:00 0.2 C 97 % 993.2 hPa 0.8 l/m 5.5 km/h (1 Bft) S 0.00 h 0 W/m -0.3 C -1.4 C 10.6 km/h (2 Bft)
23.11.2008 23:00 0.4 C 97 % 992.3 hPa 0.8 l/m 3.6 km/h (1 Bft) S 0.00 h 0 W/m -0.0 C -0.1 C 7.6 km/h (2 Bft)
Min-Datum _ 23.11.08 21.11.08 23.11.08 - 17.11.08 - - - 23.11.08 22.11.08 17.11.08
_ Min-Zeit 03:26 18:19 23:30 - 00:10 - - - 10:45 14:24 00:10
Minimum _ -1.5 C 57 % 992.1 hPa - 0.0 km/h (0 Bft) - - - -5.5 C -6.2 C 0.0 km/h (0 Bft)
Max-Datum _ 20.11.08 17.11.08 17.11.08 21.11.08 21.11.08 - 17.11.08 23.11.08 21.11.08 20.11.08 21.11.08
_ Max-Zeit 14:05 05:39 08:30 07:01 14:10 - 09:34 12:16 14:10 14:05 14:10
Maximum _ 10.4 C 98 % 1031.7 hPa 2.2 l/m 40.0 km/h
W (6 Bft)
- 0.02 h 499 W/m 7.8 C 10.4 C 57.4 km/h
W-NW (7 Bft)
Durchschnitt _ 4.6 C 85 % 1016.1 hPa #24.6 l/m 6.7 km/h (2 Bft) W #8:45 h 82 W/m 2.2 C 3.2 C 10.8 km/h (2 Bft)
© Kaiko 2008